Weather History for Cody, WY

Change the Weather History Date:

Sunday, July 21, 2013

  Actual Average Record
Temperature  
Mean Temperature 73 °F -  
Max Temperature 87 °F 82 °F 102 °F (1931)
Min Temperature 59 °F 54 °F 41 °F (1949)
Cooling Degree Days 8    
Growing Degree Days 23 (Base 50)    
Moisture  
Dew Point 40 °F    
Average Humidity 32    
Maximum Humidity 55    
Minimum Humidity 16    
Precipitation  
Precipitation 0.00 in - - ()
Sea Level Pressure  
Sea Level Pressure 29.95 in    
Wind  
Wind Speed 7 mph (North)    
Max Wind Speed 15 mph    
Max Gust Speed 22 mph    
Visibility 10 miles    
Events      
Averages and records for this station are not official NWS values.
T = Trace of Precipitation, MM = Missing Value Source: NWS Daily Summary

Daily Weather History Graph

Daily Weather History Graph

Search for Another Location

Airport:

Trip Planner

Search our weather history database for the weather conditions in past years. The results will help you decide how hot, cold, wet, or windy it might be!

Date:

Astronomy

Jul. 21, 2013 Rise Set
Actual Time 5:51 AM MDT 8:53 PM MDT
Civil Twilight 5:16 AM MDT 9:27 PM MDT
Nautical Twilight 4:32 AM MDT 10:11 PM MDT
Astronomical Twilight 3:38 AM MDT 11:04 PM MDT
Moon 7:51 PM MDT (7/21) 4:41 AM MDT (7/21)
Length of Visible Light 16h 10m
Length of Day
15h 01m
Waxing Gibbous, 98% of the Moon is Illuminated
Jul 21
Waxing Gibbous
Jul 22
Full
Jul 29
Last Quarter
Aug 6
New
Aug 14
First Quarter

Hourly Weather History & Observations

Time (MDT) Temp. Dew Point Humidity Pressure Visibility Wind Dir Wind Speed Gust Speed Precip Events Conditions
12:15 AM 66.2 °F 39.2 °F 37% 29.98 in 10.0 mi SSW 5.8 mph - N/A   Clear
12:35 AM 66.2 °F 42.8 °F 43% 29.97 in 10.0 mi SSW 9.2 mph - N/A   Clear
12:55 AM 66.2 °F 42.8 °F 43% 29.97 in 10.0 mi SW 6.9 mph - N/A   Clear
1:15 AM 69.8 °F 42.8 °F 38% 29.97 in 10.0 mi SW 6.9 mph - N/A   Clear
1:35 AM 68.0 °F 42.8 °F 40% 29.96 in 10.0 mi SW 6.9 mph - N/A   Clear
1:55 AM 68.0 °F 42.8 °F 40% 29.96 in 10.0 mi SW 3.5 mph - N/A   Clear
2:15 AM 66.2 °F 41.0 °F 40% 29.96 in 10.0 mi Calm Calm - N/A   Clear
2:35 AM 66.2 °F 41.0 °F 40% 29.96 in 10.0 mi SSE 5.8 mph - N/A   Clear
2:55 AM 66.2 °F 41.0 °F 40% 29.95 in 10.0 mi SW 11.5 mph - N/A   Clear
3:15 AM 66.2 °F 41.0 °F 40% 29.95 in 10.0 mi SW 8.1 mph - N/A   Clear
3:35 AM 66.2 °F 41.0 °F 40% 29.94 in 10.0 mi SW 4.6 mph - N/A   Clear
3:55 AM 66.2 °F 41.0 °F 40% 29.94 in 10.0 mi SW 6.9 mph - N/A   Clear
4:15 AM 64.4 °F 42.8 °F 45% 29.93 in 10.0 mi WSW 5.8 mph - N/A   Clear
4:35 AM 64.4 °F 41.0 °F 42% 29.93 in 10.0 mi SSW 4.6 mph - N/A   Clear
4:55 AM 62.6 °F 39.2 °F 42% 29.93 in 10.0 mi SSE 6.9 mph - N/A   Clear
5:15 AM 62.6 °F 39.2 °F 42% 29.93 in 10.0 mi SSW 5.8 mph - N/A   Clear
5:35 AM 64.4 °F 41.0 °F 42% 29.93 in 10.0 mi SSW 5.8 mph - N/A   Clear
5:55 AM 62.6 °F 41.0 °F 45% 29.93 in 10.0 mi Calm Calm - N/A   Clear
6:15 AM 59.0 °F 41.0 °F 51% 29.93 in 10.0 mi SW 4.6 mph - N/A   Clear
6:35 AM 60.8 °F 41.0 °F 48% 29.93 in 10.0 mi Calm Calm - N/A   Clear
6:55 AM 59.0 °F 42.8 °F 55% 29.94 in 10.0 mi Calm Calm - N/A   Clear
7:15 AM 60.8 °F 42.8 °F 52% 29.95 in 10.0 mi Calm Calm - N/A   Clear
7:35 AM 60.8 °F 44.6 °F 55% 29.96 in 10.0 mi North 3.5 mph - N/A   Clear
7:55 AM 62.6 °F 46.4 °F 55% 29.96 in 10.0 mi NW 3.5 mph - N/A   Clear
8:15 AM 68.0 °F 48.2 °F 49% 29.97 in 10.0 mi Calm Calm - N/A   Clear
8:35 AM 69.8 °F 46.4 °F 43% 29.97 in 10.0 mi NE 4.6 mph - N/A   Clear
8:55 AM 69.8 °F 46.4 °F 43% 29.97 in 10.0 mi North 5.8 mph - N/A   Clear
9:15 AM 71.6 °F 48.2 °F 43% 29.97 in 10.0 mi Calm Calm - N/A   Clear
9:35 AM 73.4 °F 46.4 °F 38% 29.97 in 10.0 mi Calm Calm - N/A   Clear
9:55 AM 75.2 °F 48.2 °F 38% 29.97 in 10.0 mi North 5.8 mph - N/A   Clear
10:15 AM 77.0 °F 48.2 °F 36% 29.97 in 10.0 mi NNE 8.1 mph - N/A   Clear
10:35 AM 78.8 °F 44.6 °F 30% 29.97 in 10.0 mi NE 5.8 mph - N/A   Clear
10:55 AM 78.8 °F 42.8 °F 28% 29.96 in 10.0 mi NE 11.5 mph - N/A   Clear
11:15 AM 78.8 °F 42.8 °F 28% 29.96 in 10.0 mi NNE 12.7 mph - N/A   Clear
11:35 AM 80.6 °F 42.8 °F 26% 29.96 in 10.0 mi NNE 13.8 mph 17.3 mph N/A   Clear
11:55 AM 80.6 °F 42.8 °F 26% 29.96 in 10.0 mi NNE 12.7 mph 17.3 mph N/A   Clear
12:15 PM 80.6 °F 44.6 °F 28% 29.95 in 10.0 mi NE 11.5 mph - N/A   Clear
12:55 PM 80.6 °F 46.4 °F 30% 29.95 in 10.0 mi North 13.8 mph - N/A   Clear
1:15 PM 82.4 °F 42.8 °F 25% 29.95 in 10.0 mi North 9.2 mph - N/A   Clear
1:35 PM 82.4 °F 42.8 °F 25% 29.94 in 10.0 mi NNE 10.4 mph 18.4 mph N/A   Clear
1:55 PM 84.2 °F 42.8 °F 23% 29.94 in 10.0 mi NE 12.7 mph - N/A   Clear
2:15 PM 84.2 °F 39.2 °F 20% 29.93 in 10.0 mi ENE 15.0 mph 20.7 mph N/A   Clear
2:35 PM 86.0 °F 39.2 °F 19% 29.94 in 10.0 mi NE 9.2 mph - N/A   Partly Cloudy
2:55 PM 86.0 °F 39.2 °F 19% 29.93 in 10.0 mi NE 13.8 mph 18.4 mph N/A   Clear
3:15 PM 86.0 °F 39.2 °F 19% 29.93 in 10.0 mi NE 13.8 mph - N/A   Clear
3:35 PM 87.8 °F 39.2 °F 18% 29.93 in 10.0 mi NNE 11.5 mph - N/A   Clear
3:55 PM 87.8 °F 39.2 °F 18% 29.92 in 10.0 mi NNE 13.8 mph 17.3 mph N/A   Clear
4:15 PM 86.0 °F 37.4 °F 18% 29.92 in 10.0 mi North 15.0 mph 18.4 mph N/A   Clear
4:35 PM 86.0 °F 39.2 °F 19% 29.92 in 10.0 mi NNE 13.8 mph 21.9 mph N/A   Clear
5:15 PM 84.2 °F 33.8 °F 16% 29.92 in 10.0 mi NNE 13.8 mph - N/A   Clear
5:35 PM 84.2 °F 33.8 °F 16% 29.92 in 10.0 mi North 12.7 mph 20.7 mph N/A   Clear
5:55 PM 82.4 °F 35.6 °F 19% 29.92 in 10.0 mi NNE 12.7 mph 19.6 mph N/A   Clear
6:15 PM 84.2 °F 33.8 °F 16% 29.92 in 10.0 mi NNE 12.7 mph - N/A   Clear
6:35 PM 82.4 °F 33.8 °F 17% 29.92 in 10.0 mi NE 8.1 mph - N/A   Clear
6:55 PM 84.2 °F 33.8 °F 16% 29.92 in 10.0 mi NE 10.4 mph - N/A   Clear
7:15 PM 80.6 °F 35.6 °F 20% 29.93 in 10.0 mi North 12.7 mph - N/A   Clear
7:35 PM 80.6 °F 37.4 °F 21% 29.93 in 10.0 mi North 10.4 mph - N/A   Clear
7:55 PM 78.8 °F 33.8 °F 20% 29.94 in 10.0 mi North 9.2 mph - N/A   Clear
8:15 PM 77.0 °F 33.8 °F 21% 29.95 in 10.0 mi North 8.1 mph - N/A   Clear
8:35 PM 78.8 °F 33.8 °F 20% 29.95 in 10.0 mi NNE 4.6 mph - N/A   Clear
8:55 PM 75.2 °F 33.8 °F 22% 29.96 in 10.0 mi North 5.8 mph - N/A   Clear
9:15 PM 75.2 °F 33.8 °F 22% 29.96 in 10.0 mi Calm Calm - N/A   Clear
9:35 PM 73.4 °F 32.0 °F 22% 29.98 in 10.0 mi Calm Calm - N/A   Clear
9:55 PM 73.4 °F 30.2 °F 20% 29.99 in 10.0 mi Calm Calm - N/A   Clear
10:15 PM 71.6 °F 32.0 °F 23% 30.00 in 10.0 mi WNW 4.6 mph - N/A   Clear
10:35 PM 69.8 °F 33.8 °F 27% 30.00 in 10.0 mi WNW 4.6 mph - N/A   Clear
10:55 PM 69.8 °F 33.8 °F 27% 30.01 in 10.0 mi Calm Calm - N/A   Clear
11:15 PM 69.8 °F 33.8 °F 27% 30.01 in 10.0 mi NW 5.8 mph - N/A   Clear
11:35 PM 69.8 °F 32.0 °F 25% 30.01 in 10.0 mi Calm Calm - N/A   Clear
11:55 PM 68.0 °F 33.8 °F 28% 30.01 in 10.0 mi Calm Calm - N/A   Clear